sensor_id;sensor_type;location;lat;lon;timestamp;P1;durP1;ratioP1;P2;durP2;ratioP2
946;SDS011;460;48.734;9.152;2023-01-01T00:01:08;25.07;;;16.50;;
946;SDS011;460;48.734;9.152;2023-01-01T00:03:37;20.30;;;18.13;;
946;SDS011;460;48.734;9.152;2023-01-01T00:06:05;16.50;;;12.07;;
946;SDS011;460;48.734;9.152;2023-01-01T00:08:33;13.30;;;11.70;;
946;SDS011;460;48.734;9.152;2023-01-01T00:11:00;14.03;;;10.67;;
946;SDS011;460;48.734;9.152;2023-01-01T00:13:27;17.77;;;10.77;;
946;SDS011;460;48.734;9.152;2023-01-01T00:15:54;11.73;;;9.57;;
946;SDS011;460;48.734;9.152;2023-01-01T00:18:21;11.87;;;10.40;;
946;SDS011;460;48.734;9.152;2023-01-01T00:20:49;9.53;;;7.87;;
946;SDS011;460;48.734;9.152;2023-01-01T00:23:16;17.10;;;9.13;;
946;SDS011;460;48.734;9.152;2023-01-01T00:25:43;11.07;;;9.90;;
946;SDS011;460;48.734;9.152;2023-01-01T00:28:09;14.00;;;8.27;;
946;SDS011;460;48.734;9.152;2023-01-01T00:30:38;9.53;;;7.57;;
946;SDS011;460;48.734;9.152;2023-01-01T00:33:05;11.03;;;9.73;;
946;SDS011;460;48.734;9.152;2023-01-01T00:35:32;10.83;;;7.87;;
946;SDS011;460;48.734;9.152;2023-01-01T00:38:01;16.90;;;8.57;;
946;SDS011;460;48.734;9.152;2023-01-01T00:40:27;11.57;;;8.90;;
946;SDS011;460;48.734;9.152;2023-01-01T00:42:54;15.13;;;9.23;;
946;SDS011;460;48.734;9.152;2023-01-01T00:45:21;13.47;;;6.93;;
946;SDS011;460;48.734;9.152;2023-01-01T00:47:48;9.53;;;7.80;;
946;SDS011;460;48.734;9.152;2023-01-01T00:50:16;8.67;;;6.37;;
946;SDS011;460;48.734;9.152;2023-01-01T00:52:43;7.13;;;6.30;;
946;SDS011;460;48.734;9.152;2023-01-01T00:55:11;10.40;;;6.37;;
946;SDS011;460;48.734;9.152;2023-01-01T00:57:38;8.43;;;7.60;;
946;SDS011;460;48.734;9.152;2023-01-01T01:00:06;10.00;;;8.87;;
946;SDS011;460;48.734;9.152;2023-01-01T01:02:34;8.97;;;7.60;;
946;SDS011;460;48.734;9.152;2023-01-01T01:05:00;11.33;;;6.87;;
946;SDS011;460;48.734;9.152;2023-01-01T01:07:31;11.80;;;7.60;;
946;SDS011;460;48.734;9.152;2023-01-01T01:10:00;6.80;;;6.20;;
946;SDS011;460;48.734;9.152;2023-01-01T01:12:28;6.47;;;5.60;;
946;SDS011;460;48.734;9.152;2023-01-01T01:14:55;7.90;;;5.70;;
946;SDS011;460;48.734;9.152;2023-01-01T01:17:22;8.87;;;6.10;;
946;SDS011;460;48.734;9.152;2023-01-01T01:19:48;8.40;;;6.80;;
946;SDS011;460;48.734;9.152;2023-01-01T01:22:15;9.43;;;7.70;;
946;SDS011;460;48.734;9.152;2023-01-01T01:24:42;9.73;;;6.53;;
946;SDS011;460;48.734;9.152;2023-01-01T01:27:09;11.70;;;7.60;;
946;SDS011;460;48.734;9.152;2023-01-01T01:29:37;9.53;;;6.27;;
946;SDS011;460;48.734;9.152;2023-01-01T01:32:04;6.93;;;6.20;;
946;SDS011;460;48.734;9.152;2023-01-01T01:34:31;5.90;;;4.87;;
946;SDS011;460;48.734;9.152;2023-01-01T01:36:58;7.93;;;6.00;;
946;SDS011;460;48.734;9.152;2023-01-01T01:39:24;8.77;;;6.67;;
946;SDS011;460;48.734;9.152;2023-01-01T01:41:51;8.00;;;6.07;;
946;SDS011;460;48.734;9.152;2023-01-01T01:47:21;7.17;;;5.00;;
946;SDS011;460;48.734;9.152;2023-01-01T01:49:52;7.13;;;5.80;;
946;SDS011;460;48.734;9.152;2023-01-01T01:52:23;4.87;;;4.43;;
946;SDS011;460;48.734;9.152;2023-01-01T01:54:50;5.60;;;4.97;;
946;SDS011;460;48.734;9.152;2023-01-01T01:57:18;9.87;;;5.63;;
946;SDS011;460;48.734;9.152;2023-01-01T01:59:46;10.27;;;5.30;;
946;SDS011;460;48.734;9.152;2023-01-01T02:02:19;6.47;;;5.20;;
946;SDS011;460;48.734;9.152;2023-01-01T02:04:52;6.30;;;4.13;;
946;SDS011;460;48.734;9.152;2023-01-01T02:07:20;4.93;;;4.40;;
946;SDS011;460;48.734;9.152;2023-01-01T02:09:50;4.33;;;4.03;;
946;SDS011;460;48.734;9.152;2023-01-01T02:12:18;4.43;;;3.63;;
946;SDS011;460;48.734;9.152;2023-01-01T02:14:46;9.03;;;4.13;;
946;SDS011;460;48.734;9.152;2023-01-01T02:17:14;8.53;;;4.87;;
946;SDS011;460;48.734;9.152;2023-01-01T02:19:54;4.73;;;4.10;;
946;SDS011;460;48.734;9.152;2023-01-01T02:22:47;11.23;;;5.27;;
946;SDS011;460;48.734;9.152;2023-01-01T02:25:31;3.83;;;3.47;;
946;SDS011;460;48.734;9.152;2023-01-01T02:28:12;6.03;;;3.17;;
946;SDS011;460;48.734;9.152;2023-01-01T02:30:49;6.63;;;5.13;;
946;SDS011;460;48.734;9.152;2023-01-01T02:33:20;4.57;;;4.17;;
946;SDS011;460;48.734;9.152;2023-01-01T02:35:53;7.93;;;4.87;;
946;SDS011;460;48.734;9.152;2023-01-01T02:38:25;6.30;;;3.90;;
946;SDS011;460;48.734;9.152;2023-01-01T02:40:58;5.67;;;5.00;;
946;SDS011;460;48.734;9.152;2023-01-01T02:43:29;4.53;;;4.00;;
946;SDS011;460;48.734;9.152;2023-01-01T02:45:58;5.10;;;3.50;;
946;SDS011;460;48.734;9.152;2023-01-01T02:48:34;5.83;;;5.30;;
946;SDS011;460;48.734;9.152;2023-01-01T02:51:05;3.57;;;3.03;;
946;SDS011;460;48.734;9.152;2023-01-01T02:53:42;3.07;;;2.80;;
946;SDS011;460;48.734;9.152;2023-01-01T02:56:17;3.97;;;3.63;;
946;SDS011;460;48.734;9.152;2023-01-01T02:58:56;3.40;;;3.10;;
946;SDS011;460;48.734;9.152;2023-01-01T03:01:52;3.27;;;2.87;;
946;SDS011;460;48.734;9.152;2023-01-01T03:04:27;8.20;;;3.77;;
946;SDS011;460;48.734;9.152;2023-01-01T03:07:03;3.90;;;2.77;;
946;SDS011;460;48.734;9.152;2023-01-01T03:09:37;3.70;;;2.63;;
946;SDS011;460;48.734;9.152;2023-01-01T03:12:09;6.50;;;3.67;;
946;SDS011;460;48.734;9.152;2023-01-01T03:14:49;5.33;;;3.67;;
946;SDS011;460;48.734;9.152;2023-01-01T03:17:26;3.63;;;3.23;;
946;SDS011;460;48.734;9.152;2023-01-01T03:20:00;4.43;;;4.03;;
946;SDS011;460;48.734;9.152;2023-01-01T03:22:34;3.87;;;3.57;;
946;SDS011;460;48.734;9.152;2023-01-01T03:25:05;3.53;;;2.53;;
946;SDS011;460;48.734;9.152;2023-01-01T03:27:36;3.90;;;2.73;;
946;SDS011;460;48.734;9.152;2023-01-01T03:30:08;7.30;;;4.10;;
946;SDS011;460;48.734;9.152;2023-01-01T03:32:39;5.40;;;3.17;;
946;SDS011;460;48.734;9.152;2023-01-01T03:35:33;4.03;;;3.70;;
946;SDS011;460;48.734;9.152;2023-01-01T03:38:05;4.20;;;3.27;;
946;SDS011;460;48.734;9.152;2023-01-01T03:40:39;6.43;;;4.50;;
946;SDS011;460;48.734;9.152;2023-01-01T03:43:13;3.80;;;3.40;;
946;SDS011;460;48.734;9.152;2023-01-01T03:45:47;4.53;;;3.30;;
946;SDS011;460;48.734;9.152;2023-01-01T03:48:18;6.50;;;4.93;;
946;SDS011;460;48.734;9.152;2023-01-01T03:50:49;4.67;;;3.47;;
946;SDS011;460;48.734;9.152;2023-01-01T03:53:27;4.00;;;3.17;;
946;SDS011;460;48.734;9.152;2023-01-01T03:56:06;3.20;;;2.90;;
946;SDS011;460;48.734;9.152;2023-01-01T03:58:41;3.47;;;2.50;;
946;SDS011;460;48.734;9.152;2023-01-01T04:01:15;2.20;;;1.47;;
946;SDS011;460;48.734;9.152;2023-01-01T04:03:49;7.43;;;3.00;;
946;SDS011;460;48.734;9.152;2023-01-01T04:06:18;4.20;;;3.10;;
946;SDS011;460;48.734;9.152;2023-01-01T04:08:46;6.33;;;3.37;;
946;SDS011;460;48.734;9.152;2023-01-01T04:11:17;4.00;;;3.43;;
946;SDS011;460;48.734;9.152;2023-01-01T04:14:05;2.67;;;2.47;;
946;SDS011;460;48.734;9.152;2023-01-01T04:16:32;3.30;;;3.00;;
946;SDS011;460;48.734;9.152;2023-01-01T04:19:00;4.50;;;4.10;;
946;SDS011;460;48.734;9.152;2023-01-01T04:21:27;3.77;;;3.10;;
946;SDS011;460;48.734;9.152;2023-01-01T04:23:53;4.97;;;3.30;;
946;SDS011;460;48.734;9.152;2023-01-01T04:26:20;3.47;;;3.03;;
946;SDS011;460;48.734;9.152;2023-01-01T04:28:47;3.53;;;2.70;;
946;SDS011;460;48.734;9.152;2023-01-01T04:31:14;3.00;;;2.40;;
946;SDS011;460;48.734;9.152;2023-01-01T04:33:41;4.37;;;3.17;;
946;SDS011;460;48.734;9.152;2023-01-01T04:36:09;3.20;;;2.90;;
946;SDS011;460;48.734;9.152;2023-01-01T04:38:36;2.90;;;2.23;;
946;SDS011;460;48.734;9.152;2023-01-01T04:41:03;2.73;;;1.93;;
946;SDS011;460;48.734;9.152;2023-01-01T04:43:30;5.10;;;2.17;;
946;SDS011;460;48.734;9.152;2023-01-01T04:45:58;4.60;;;2.80;;
946;SDS011;460;48.734;9.152;2023-01-01T04:48:25;3.37;;;2.23;;
946;SDS011;460;48.734;9.152;2023-01-01T04:50:54;3.33;;;2.83;;
946;SDS011;460;48.734;9.152;2023-01-01T04:53:23;4.40;;;2.80;;
946;SDS011;460;48.734;9.152;2023-01-01T04:55:50;2.40;;;2.20;;
946;SDS011;460;48.734;9.152;2023-01-01T04:58:17;1.77;;;1.67;;
946;SDS011;460;48.734;9.152;2023-01-01T05:00:47;2.83;;;1.90;;
946;SDS011;460;48.734;9.152;2023-01-01T05:03:15;1.63;;;1.53;;
946;SDS011;460;48.734;9.152;2023-01-01T05:05:42;2.27;;;2.17;;
946;SDS011;460;48.734;9.152;2023-01-01T05:08:08;4.57;;;2.90;;
946;SDS011;460;48.734;9.152;2023-01-01T05:10:37;2.70;;;2.20;;
946;SDS011;460;48.734;9.152;2023-01-01T05:13:05;5.10;;;2.37;;
946;SDS011;460;48.734;9.152;2023-01-01T05:15:34;2.17;;;2.00;;
946;SDS011;460;48.734;9.152;2023-01-01T05:18:01;1.83;;;1.67;;
946;SDS011;460;48.734;9.152;2023-01-01T05:20:28;3.70;;;2.00;;
946;SDS011;460;48.734;9.152;2023-01-01T05:22:55;2.03;;;1.80;;
946;SDS011;460;48.734;9.152;2023-01-01T05:25:22;1.90;;;1.73;;
946;SDS011;460;48.734;9.152;2023-01-01T05:27:50;3.63;;;2.17;;
946;SDS011;460;48.734;9.152;2023-01-01T05:30:17;2.60;;;1.97;;
946;SDS011;460;48.734;9.152;2023-01-01T05:32:43;2.93;;;2.10;;
946;SDS011;460;48.734;9.152;2023-01-01T05:35:10;1.90;;;1.27;;
946;SDS011;460;48.734;9.152;2023-01-01T05:37:37;2.67;;;2.47;;
946;SDS011;460;48.734;9.152;2023-01-01T05:40:04;2.17;;;1.97;;
946;SDS011;460;48.734;9.152;2023-01-01T05:42:31;2.70;;;2.20;;
946;SDS011;460;48.734;9.152;2023-01-01T05:45:01;3.43;;;1.70;;
946;SDS011;460;48.734;9.152;2023-01-01T05:47:28;1.80;;;1.70;;
946;SDS011;460;48.734;9.152;2023-01-01T05:49:55;2.67;;;2.23;;
946;SDS011;460;48.734;9.152;2023-01-01T05:52:22;1.57;;;1.47;;
946;SDS011;460;48.734;9.152;2023-01-01T05:54:49;2.00;;;1.80;;
946;SDS011;460;48.734;9.152;2023-01-01T05:57:16;3.47;;;2.03;;
946;SDS011;460;48.734;9.152;2023-01-01T05:59:42;1.80;;;1.57;;
946;SDS011;460;48.734;9.152;2023-01-01T06:02:10;2.50;;;2.30;;
946;SDS011;460;48.734;9.152;2023-01-01T06:04:38;1.67;;;1.57;;
946;SDS011;460;48.734;9.152;2023-01-01T06:07:05;2.23;;;1.87;;
946;SDS011;460;48.734;9.152;2023-01-01T06:09:31;3.33;;;1.60;;
946;SDS011;460;48.734;9.152;2023-01-01T06:11:58;1.47;;;1.37;;
946;SDS011;460;48.734;9.152;2023-01-01T06:14:25;1.70;;;1.60;;
946;SDS011;460;48.734;9.152;2023-01-01T06:16:52;2.20;;;2.00;;
946;SDS011;460;48.734;9.152;2023-01-01T06:19:20;1.20;;;1.10;;
946;SDS011;460;48.734;9.152;2023-01-01T06:21:47;1.80;;;1.70;;
946;SDS011;460;48.734;9.152;2023-01-01T06:24:14;3.13;;;1.20;;
946;SDS011;460;48.734;9.152;2023-01-01T06:26:41;3.47;;;2.40;;
946;SDS011;460;48.734;9.152;2023-01-01T06:29:07;2.60;;;1.87;;
946;SDS011;460;48.734;9.152;2023-01-01T06:31:34;1.90;;;1.20;;
946;SDS011;460;48.734;9.152;2023-01-01T06:34:01;2.70;;;1.67;;
946;SDS011;460;48.734;9.152;2023-01-01T06:36:29;1.80;;;1.70;;
946;SDS011;460;48.734;9.152;2023-01-01T06:38:56;2.20;;;1.70;;
946;SDS011;460;48.734;9.152;2023-01-01T06:41:24;0.93;;;0.93;;
946;SDS011;460;48.734;9.152;2023-01-01T06:43:53;3.90;;;1.07;;
946;SDS011;460;48.734;9.152;2023-01-01T06:46:20;1.40;;;1.30;;
946;SDS011;460;48.734;9.152;2023-01-01T06:48:49;1.37;;;1.27;;
946;SDS011;460;48.734;9.152;2023-01-01T06:51:18;2.47;;;2.23;;
946;SDS011;460;48.734;9.152;2023-01-01T06:53:48;3.93;;;1.40;;
946;SDS011;460;48.734;9.152;2023-01-01T06:56:15;1.40;;;1.30;;
946;SDS011;460;48.734;9.152;2023-01-01T06:58:43;1.40;;;1.30;;
946;SDS011;460;48.734;9.152;2023-01-01T07:01:10;2.00;;;1.63;;
946;SDS011;460;48.734;9.152;2023-01-01T07:03:39;2.77;;;1.90;;
946;SDS011;460;48.734;9.152;2023-01-01T07:06:07;1.23;;;1.13;;
946;SDS011;460;48.734;9.152;2023-01-01T07:08:34;2.17;;;1.20;;
946;SDS011;460;48.734;9.152;2023-01-01T07:11:03;1.70;;;1.43;;
946;SDS011;460;48.734;9.152;2023-01-01T07:13:30;1.73;;;1.60;;
946;SDS011;460;48.734;9.152;2023-01-01T07:15:56;2.20;;;1.93;;
946;SDS011;460;48.734;9.152;2023-01-01T07:18:23;2.37;;;2.03;;
946;SDS011;460;48.734;9.152;2023-01-01T07:20:51;2.43;;;1.23;;
946;SDS011;460;48.734;9.152;2023-01-01T07:23:19;0.90;;;0.90;;
946;SDS011;460;48.734;9.152;2023-01-01T07:25:47;1.37;;;1.27;;
946;SDS011;460;48.734;9.152;2023-01-01T07:28:16;2.07;;;1.87;;
946;SDS011;460;48.734;9.152;2023-01-01T07:30:43;1.60;;;1.50;;
946;SDS011;460;48.734;9.152;2023-01-01T07:33:10;1.23;;;1.10;;
946;SDS011;460;48.734;9.152;2023-01-01T07:35:38;1.30;;;1.20;;
946;SDS011;460;48.734;9.152;2023-01-01T07:38:05;5.00;;;2.33;;
946;SDS011;460;48.734;9.152;2023-01-01T07:40:33;0.97;;;0.97;;
946;SDS011;460;48.734;9.152;2023-01-01T07:42:59;1.50;;;1.33;;
946;SDS011;460;48.734;9.152;2023-01-01T07:45:28;0.97;;;0.97;;
946;SDS011;460;48.734;9.152;2023-01-01T07:47:56;1.10;;;1.00;;
946;SDS011;460;48.734;9.152;2023-01-01T07:50:24;1.23;;;0.93;;
946;SDS011;460;48.734;9.152;2023-01-01T07:52:52;1.60;;;1.50;;
946;SDS011;460;48.734;9.152;2023-01-01T07:55:19;1.80;;;1.70;;
946;SDS011;460;48.734;9.152;2023-01-01T07:57:47;1.67;;;1.57;;
946;SDS011;460;48.734;9.152;2023-01-01T08:00:14;2.50;;;1.67;;
946;SDS011;460;48.734;9.152;2023-01-01T08:02:44;2.17;;;2.07;;
946;SDS011;460;48.734;9.152;2023-01-01T08:05:11;2.17;;;1.90;;
946;SDS011;460;48.734;9.152;2023-01-01T08:07:38;1.83;;;1.73;;
946;SDS011;460;48.734;9.152;2023-01-01T08:10:05;2.97;;;2.00;;
946;SDS011;460;48.734;9.152;2023-01-01T08:12:33;2.80;;;2.13;;
946;SDS011;460;48.734;9.152;2023-01-01T08:15:00;1.07;;;1.00;;
946;SDS011;460;48.734;9.152;2023-01-01T08:17:27;3.47;;;1.37;;
946;SDS011;460;48.734;9.152;2023-01-01T08:19:55;1.47;;;1.13;;
946;SDS011;460;48.734;9.152;2023-01-01T08:22:21;1.43;;;1.33;;
946;SDS011;460;48.734;9.152;2023-01-01T08:24:48;1.90;;;1.80;;
946;SDS011;460;48.734;9.152;2023-01-01T08:27:15;4.63;;;2.30;;
946;SDS011;460;48.734;9.152;2023-01-01T08:29:42;4.93;;;1.60;;
946;SDS011;460;48.734;9.152;2023-01-01T08:32:09;1.87;;;1.77;;
946;SDS011;460;48.734;9.152;2023-01-01T08:34:36;1.33;;;1.23;;
946;SDS011;460;48.734;9.152;2023-01-01T08:37:04;5.93;;;1.70;;
946;SDS011;460;48.734;9.152;2023-01-01T08:39:31;2.50;;;1.67;;
946;SDS011;460;48.734;9.152;2023-01-01T08:41:58;1.63;;;1.27;;
946;SDS011;460;48.734;9.152;2023-01-01T08:44:25;1.43;;;1.33;;
946;SDS011;460;48.734;9.152;2023-01-01T08:46:51;2.07;;;1.53;;
946;SDS011;460;48.734;9.152;2023-01-01T08:49:18;5.10;;;1.73;;
946;SDS011;460;48.734;9.152;2023-01-01T08:51:45;2.20;;;1.87;;
946;SDS011;460;48.734;9.152;2023-01-01T08:54:13;2.23;;;2.03;;
946;SDS011;460;48.734;9.152;2023-01-01T08:56:40;3.50;;;1.87;;
946;SDS011;460;48.734;9.152;2023-01-01T08:59:07;1.33;;;1.03;;
946;SDS011;460;48.734;9.152;2023-01-01T09:01:33;2.07;;;1.33;;
946;SDS011;460;48.734;9.152;2023-01-01T09:04:00;1.03;;;0.97;;
946;SDS011;460;48.734;9.152;2023-01-01T09:06:27;3.40;;;1.87;;
946;SDS011;460;48.734;9.152;2023-01-01T09:08:54;2.10;;;1.90;;
946;SDS011;460;48.734;9.152;2023-01-01T09:11:23;3.00;;;1.70;;
946;SDS011;460;48.734;9.152;2023-01-01T09:13:51;1.43;;;1.33;;
946;SDS011;460;48.734;9.152;2023-01-01T09:16:18;1.93;;;1.83;;
946;SDS011;460;48.734;9.152;2023-01-01T09:18:45;3.23;;;1.77;;
946;SDS011;460;48.734;9.152;2023-01-01T09:21:12;2.20;;;1.97;;
946;SDS011;460;48.734;9.152;2023-01-01T09:23:39;2.47;;;2.17;;
946;SDS011;460;48.734;9.152;2023-01-01T09:26:07;3.23;;;1.63;;
946;SDS011;460;48.734;9.152;2023-01-01T09:28:36;1.00;;;0.90;;
946;SDS011;460;48.734;9.152;2023-01-01T09:31:03;1.47;;;1.20;;
946;SDS011;460;48.734;9.152;2023-01-01T09:33:31;1.73;;;1.63;;
946;SDS011;460;48.734;9.152;2023-01-01T09:36:10;1.47;;;1.20;;
946;SDS011;460;48.734;9.152;2023-01-01T09:38:38;1.60;;;1.33;;
946;SDS011;460;48.734;9.152;2023-01-01T09:41:07;2.10;;;1.90;;
946;SDS011;460;48.734;9.152;2023-01-01T09:43:44;1.63;;;1.57;;
946;SDS011;460;48.734;9.152;2023-01-01T09:46:21;1.73;;;1.40;;
946;SDS011;460;48.734;9.152;2023-01-01T09:48:50;2.50;;;1.70;;
946;SDS011;460;48.734;9.152;2023-01-01T09:51:20;1.20;;;1.07;;
946;SDS011;460;48.734;9.152;2023-01-01T09:53:50;1.27;;;1.17;;
946;SDS011;460;48.734;9.152;2023-01-01T09:56:21;3.37;;;1.23;;
946;SDS011;460;48.734;9.152;2023-01-01T09:58:52;1.90;;;1.20;;
946;SDS011;460;48.734;9.152;2023-01-01T10:01:25;11.73;;;2.10;;
946;SDS011;460;48.734;9.152;2023-01-01T10:04:06;2.30;;;1.70;;
946;SDS011;460;48.734;9.152;2023-01-01T10:06:49;2.37;;;2.17;;
946;SDS011;460;48.734;9.152;2023-01-01T10:09:24;3.80;;;1.10;;
946;SDS011;460;48.734;9.152;2023-01-01T10:11:59;0.97;;;0.97;;
946;SDS011;460;48.734;9.152;2023-01-01T10:14:33;3.20;;;2.93;;
946;SDS011;460;48.734;9.152;2023-01-01T10:17:05;1.93;;;1.77;;
946;SDS011;460;48.734;9.152;2023-01-01T10:19:38;2.17;;;1.47;;
946;SDS011;460;48.734;9.152;2023-01-01T10:22:10;1.67;;;1.47;;
946;SDS011;460;48.734;9.152;2023-01-01T10:24:42;5.50;;;1.57;;
946;SDS011;460;48.734;9.152;2023-01-01T10:27:23;1.97;;;1.30;;
946;SDS011;460;48.734;9.152;2023-01-01T10:29:55;1.37;;;1.23;;
946;SDS011;460;48.734;9.152;2023-01-01T10:32:25;1.43;;;1.33;;
946;SDS011;460;48.734;9.152;2023-01-01T10:34:54;2.37;;;1.47;;
946;SDS011;460;48.734;9.152;2023-01-01T10:37:22;1.83;;;1.73;;
946;SDS011;460;48.734;9.152;2023-01-01T10:39:50;1.80;;;1.70;;
946;SDS011;460;48.734;9.152;2023-01-01T10:42:17;1.10;;;1.00;;
946;SDS011;460;48.734;9.152;2023-01-01T10:44:44;1.83;;;1.67;;
946;SDS011;460;48.734;9.152;2023-01-01T10:47:21;1.20;;;1.10;;
946;SDS011;460;48.734;9.152;2023-01-01T10:49:57;1.50;;;1.40;;
946;SDS011;460;48.734;9.152;2023-01-01T10:52:25;2.53;;;1.57;;
946;SDS011;460;48.734;9.152;2023-01-01T10:54:55;3.90;;;2.10;;
946;SDS011;460;48.734;9.152;2023-01-01T10:57:28;1.47;;;1.20;;
946;SDS011;460;48.734;9.152;2023-01-01T11:00:10;2.07;;;1.40;;
946;SDS011;460;48.734;9.152;2023-01-01T11:03:02;1.37;;;1.27;;
946;SDS011;460;48.734;9.152;2023-01-01T11:05:38;1.50;;;1.37;;
946;SDS011;460;48.734;9.152;2023-01-01T11:08:14;1.70;;;1.20;;
946;SDS011;460;48.734;9.152;2023-01-01T11:10:48;1.67;;;1.58;;
946;SDS011;460;48.734;9.152;2023-01-01T11:13:17;2.78;;;1.85;;
946;SDS011;460;48.734;9.152;2023-01-01T11:15:45;2.07;;;1.27;;
946;SDS011;460;48.734;9.152;2023-01-01T11:18:14;3.30;;;1.50;;
946;SDS011;460;48.734;9.152;2023-01-01T11:20:49;1.20;;;1.10;;
946;SDS011;460;48.734;9.152;2023-01-01T11:23:27;1.73;;;1.60;;
946;SDS011;460;48.734;9.152;2023-01-01T11:25:56;1.87;;;1.30;;
946;SDS011;460;48.734;9.152;2023-01-01T11:28:24;1.10;;;1.00;;
946;SDS011;460;48.734;9.152;2023-01-01T11:31:00;1.13;;;1.03;;
946;SDS011;460;48.734;9.152;2023-01-01T11:33:32;1.40;;;0.93;;
946;SDS011;460;48.734;9.152;2023-01-01T11:36:02;1.57;;;1.47;;
946;SDS011;460;48.734;9.152;2023-01-01T11:38:30;1.93;;;1.70;;
946;SDS011;460;48.734;9.152;2023-01-01T11:41:00;2.00;;;1.00;;
946;SDS011;460;48.734;9.152;2023-01-01T11:43:30;1.10;;;1.00;;
946;SDS011;460;48.734;9.152;2023-01-01T11:46:04;3.63;;;3.30;;
946;SDS011;460;48.734;9.152;2023-01-01T11:48:35;1.60;;;1.50;;
946;SDS011;460;48.734;9.152;2023-01-01T11:51:07;1.50;;;1.17;;
946;SDS011;460;48.734;9.152;2023-01-01T11:53:37;0.90;;;0.90;;
946;SDS011;460;48.734;9.152;2023-01-01T11:56:07;2.50;;;1.17;;
946;SDS011;460;48.734;9.152;2023-01-01T11:58:40;1.53;;;1.10;;
946;SDS011;460;48.734;9.152;2023-01-01T12:01:16;1.30;;;1.07;;
946;SDS011;460;48.734;9.152;2023-01-01T12:03:50;1.43;;;1.03;;
946;SDS011;460;48.734;9.152;2023-01-01T12:06:21;1.60;;;1.00;;
946;SDS011;460;48.734;9.152;2023-01-01T12:08:53;2.17;;;1.80;;
946;SDS011;460;48.734;9.152;2023-01-01T12:11:25;1.50;;;1.40;;
946;SDS011;460;48.734;9.152;2023-01-01T12:13:58;2.10;;;1.90;;
946;SDS011;460;48.734;9.152;2023-01-01T12:16:40;2.80;;;2.10;;
946;SDS011;460;48.734;9.152;2023-01-01T12:19:15;2.43;;;1.63;;
946;SDS011;460;48.734;9.152;2023-01-01T12:21:47;1.73;;;1.27;;
946;SDS011;460;48.734;9.152;2023-01-01T12:24:16;1.67;;;1.10;;
946;SDS011;460;48.734;9.152;2023-01-01T12:26:48;1.40;;;1.20;;
946;SDS011;460;48.734;9.152;2023-01-01T12:29:28;1.00;;;0.90;;
946;SDS011;460;48.734;9.152;2023-01-01T12:32:08;2.30;;;1.20;;
946;SDS011;460;48.734;9.152;2023-01-01T12:34:43;1.13;;;0.90;;
946;SDS011;460;48.734;9.152;2023-01-01T12:37:17;0.80;;;0.80;;
946;SDS011;460;48.734;9.152;2023-01-01T12:39:58;1.17;;;1.17;;
946;SDS011;460;48.734;9.152;2023-01-01T12:42:57;1.30;;;1.10;;
946;SDS011;460;48.734;9.152;2023-01-01T12:45:36;1.47;;;1.07;;
946;SDS011;460;48.734;9.152;2023-01-01T12:48:20;1.03;;;0.83;;
946;SDS011;460;48.734;9.152;2023-01-01T12:51:01;1.80;;;1.50;;
946;SDS011;460;48.734;9.152;2023-01-01T12:53:38;0.93;;;0.93;;
946;SDS011;460;48.734;9.152;2023-01-01T12:56:12;0.97;;;0.87;;
946;SDS011;460;48.734;9.152;2023-01-01T12:58:42;1.53;;;1.30;;
946;SDS011;460;48.734;9.152;2023-01-01T13:01:12;1.20;;;1.10;;
946;SDS011;460;48.734;9.152;2023-01-01T13:03:47;1.23;;;1.10;;
946;SDS011;460;48.734;9.152;2023-01-01T13:06:19;1.57;;;1.47;;
946;SDS011;460;48.734;9.152;2023-01-01T13:08:50;2.33;;;1.87;;
946;SDS011;460;48.734;9.152;2023-01-01T13:11:21;1.60;;;1.50;;
946;SDS011;460;48.734;9.152;2023-01-01T13:13:51;3.70;;;3.37;;
946;SDS011;460;48.734;9.152;2023-01-01T13:16:30;1.47;;;1.20;;
946;SDS011;460;48.734;9.152;2023-01-01T13:18:59;1.20;;;1.10;;
946;SDS011;460;48.734;9.152;2023-01-01T13:21:27;1.30;;;1.17;;
946;SDS011;460;48.734;9.152;2023-01-01T13:24:00;1.60;;;0.93;;
946;SDS011;460;48.734;9.152;2023-01-01T13:26:36;2.70;;;0.87;;
946;SDS011;460;48.734;9.152;2023-01-01T13:32:09;1.47;;;0.77;;
946;SDS011;460;48.734;9.152;2023-01-01T13:37:42;1.33;;;1.23;;
946;SDS011;460;48.734;9.152;2023-01-01T13:43:18;1.40;;;1.30;;
946;SDS011;460;48.734;9.152;2023-01-01T13:45:55;0.90;;;0.87;;
946;SDS011;460;48.734;9.152;2023-01-01T13:58:08;2.70;;;1.20;;
946;SDS011;460;48.734;9.152;2023-01-01T14:00:53;1.27;;;1.17;;
946;SDS011;460;48.734;9.152;2023-01-01T14:03:29;1.27;;;0.90;;
946;SDS011;460;48.734;9.152;2023-01-01T14:06:04;1.30;;;1.27;;
946;SDS011;460;48.734;9.152;2023-01-01T14:08:37;1.93;;;1.10;;
946;SDS011;460;48.734;9.152;2023-01-01T14:11:16;1.20;;;1.10;;
946;SDS011;460;48.734;9.152;2023-01-01T14:13:46;1.40;;;1.30;;
946;SDS011;460;48.734;9.152;2023-01-01T14:16:13;0.80;;;0.80;;
946;SDS011;460;48.734;9.152;2023-01-01T14:18:41;0.90;;;0.80;;
946;SDS011;460;48.734;9.152;2023-01-01T14:21:10;0.83;;;0.83;;
946;SDS011;460;48.734;9.152;2023-01-01T14:23:40;2.13;;;1.80;;
946;SDS011;460;48.734;9.152;2023-01-01T14:26:09;0.70;;;0.70;;
946;SDS011;460;48.734;9.152;2023-01-01T14:28:38;2.10;;;1.90;;
946;SDS011;460;48.734;9.152;2023-01-01T14:31:08;5.43;;;2.43;;
946;SDS011;460;48.734;9.152;2023-01-01T14:33:37;2.87;;;2.60;;
946;SDS011;460;48.734;9.152;2023-01-01T14:36:05;3.80;;;1.50;;
946;SDS011;460;48.734;9.152;2023-01-01T14:38:41;1.03;;;1.00;;
946;SDS011;460;48.734;9.152;2023-01-01T14:41:10;0.97;;;0.97;;
946;SDS011;460;48.734;9.152;2023-01-01T14:43:41;1.00;;;0.90;;
946;SDS011;460;48.734;9.152;2023-01-01T14:46:13;4.10;;;1.53;;
946;SDS011;460;48.734;9.152;2023-01-01T14:48:43;1.97;;;1.13;;
946;SDS011;460;48.734;9.152;2023-01-01T14:51:12;1.80;;;1.70;;
946;SDS011;460;48.734;9.152;2023-01-01T14:53:40;4.63;;;1.50;;
946;SDS011;460;48.734;9.152;2023-01-01T14:56:07;1.60;;;1.40;;
946;SDS011;460;48.734;9.152;2023-01-01T14:58:34;6.03;;;1.60;;
946;SDS011;460;48.734;9.152;2023-01-01T15:01:15;1.33;;;1.07;;
946;SDS011;460;48.734;9.152;2023-01-01T15:03:55;1.60;;;1.50;;
946;SDS011;460;48.734;9.152;2023-01-01T15:06:23;2.90;;;1.60;;
946;SDS011;460;48.734;9.152;2023-01-01T15:08:50;1.33;;;1.23;;
946;SDS011;460;48.734;9.152;2023-01-01T15:11:17;1.60;;;1.20;;
946;SDS011;460;48.734;9.152;2023-01-01T15:13:51;1.63;;;1.53;;
946;SDS011;460;48.734;9.152;2023-01-01T15:16:24;1.23;;;1.00;;
946;SDS011;460;48.734;9.152;2023-01-01T15:18:51;2.97;;;1.50;;
946;SDS011;460;48.734;9.152;2023-01-01T15:21:34;2.10;;;1.17;;
946;SDS011;460;48.734;9.152;2023-01-01T15:24:08;2.40;;;1.03;;
946;SDS011;460;48.734;9.152;2023-01-01T15:26:39;2.30;;;1.40;;
946;SDS011;460;48.734;9.152;2023-01-01T15:29:10;2.67;;;1.50;;
946;SDS011;460;48.734;9.152;2023-01-01T15:31:43;2.53;;;1.60;;
946;SDS011;460;48.734;9.152;2023-01-01T15:34:16;1.10;;;1.00;;
946;SDS011;460;48.734;9.152;2023-01-01T15:36:48;2.23;;;1.40;;
946;SDS011;460;48.734;9.152;2023-01-01T15:39:16;1.47;;;1.37;;
946;SDS011;460;48.734;9.152;2023-01-01T15:41:43;1.70;;;1.60;;
946;SDS011;460;48.734;9.152;2023-01-01T15:44:19;1.77;;;1.67;;
946;SDS011;460;48.734;9.152;2023-01-01T15:46:52;1.73;;;1.37;;
946;SDS011;460;48.734;9.152;2023-01-01T15:49:30;1.83;;;1.17;;
946;SDS011;460;48.734;9.152;2023-01-01T15:51:58;2.33;;;1.57;;
946;SDS011;460;48.734;9.152;2023-01-01T15:54:28;1.50;;;1.40;;
946;SDS011;460;48.734;9.152;2023-01-01T15:56:55;2.20;;;2.00;;
946;SDS011;460;48.734;9.152;2023-01-01T15:59:23;1.50;;;1.40;;
946;SDS011;460;48.734;9.152;2023-01-01T16:02:02;3.30;;;2.20;;
946;SDS011;460;48.734;9.152;2023-01-01T16:04:36;2.37;;;2.10;;
946;SDS011;460;48.734;9.152;2023-01-01T16:07:04;2.80;;;2.07;;
946;SDS011;460;48.734;9.152;2023-01-01T16:09:39;4.17;;;2.40;;
946;SDS011;460;48.734;9.152;2023-01-01T16:12:07;4.43;;;2.63;;
946;SDS011;460;48.734;9.152;2023-01-01T16:14:34;3.33;;;1.80;;
946;SDS011;460;48.734;9.152;2023-01-01T16:17:02;2.60;;;2.40;;
946;SDS011;460;48.734;9.152;2023-01-01T16:19:29;2.40;;;1.60;;
946;SDS011;460;48.734;9.152;2023-01-01T16:21:57;3.30;;;2.17;;
946;SDS011;460;48.734;9.152;2023-01-01T16:24:24;2.47;;;2.33;;
946;SDS011;460;48.734;9.152;2023-01-01T16:26:51;2.10;;;1.90;;